Huvudsida
METAR-TAF:

METAR-TAF

Flygplatser :

Gamvik, Norge

Mehamns flygplats

latitud: 71-02N, longitud: 027-50E, höjd: 1 m

Aktuellt väderrapport

Denna rapport gjordes för 2 timmar och 7 minuter sedan, klockan 08:50 UTC
Vind 30 kt från syd i byarna ända upp till 41 kt
Temperatur -6°C
Fuktighet 73%
Tryck 999 hPa
Sikt 10 km eller mer
Inga moln under 1 500 m eller inga cumulonimbus

METAR: ENMH 170850Z 19030G41KT CAVOK M06/M10 Q0999

Tid: 11:57 (10:57 UTC)


TAF: saknas

Aktuella väderrapporter och prognoser från 4000 flygplatser (METAR- och TAF-rapporter).

De tillgängliga stationerna syns som gula och röda prickar på kartan.

För musen över prickarna för att se namnen på stationerna.

Klicka sedan för att få väderrapporter och prognoser.

För att ändra kartan: Klicka på de gröna knapparna med ett svart kors på för att zooma in; den gröna knappen med ett streck på för att zooma ut; eller på de gröna pilarna för angränsande kartor.


METAR-TAF: